Time;durP1;ratioP1;P1;durP2;ratioP2;P2;SDS_P1;SDS_P2;PMS_P1;PMS_P2;Temp;Humidity;BMP_temperature;BMP_pressure;BME280_temperature;BME280_humidity;BME280_pressure;Samples;Min_cycle;Max_cycle;Signal;HPM_P1;HPM_P2
2023/01/02 00:00:27;;;;;;;12.48;3.40;;;16.40;89.10;;;;;;7367248;19;20125;-78
2023/01/02 00:03:06;;;;;;;18.80;3.58;;;16.40;89.50;;;;;;7365551;19;20026;-77
2023/01/02 00:05:46;;;;;;;13.40;3.77;;;16.50;88.70;;;;;;7356437;19;20948;-79
2023/01/02 00:08:30;;;;;;;12.57;3.50;;;16.40;89.00;;;;;;7366122;19;20022;-77
2023/01/02 00:11:43;;;;;;;12.52;3.72;;;16.20;90.00;;;;;;7368528;19;20025;-78
2023/01/02 00:14:30;;;;;;;13.45;3.80;;;16.30;89.90;;;;;;7367836;19;20010;-77
2023/01/02 00:17:17;;;;;;;9.85;3.42;;;16.50;89.50;;;;;;7366467;19;20022;-77
2023/01/02 00:19:57;;;;;;;11.93;3.92;;;16.60;88.90;;;;;;7373725;19;20442;-79
2023/01/02 00:22:50;;;;;;;15.25;3.17;;;16.70;89.40;;;;;;7390432;19;20037;-78
2023/01/02 00:25:37;;;;;;;13.05;3.80;;;16.60;89.90;;;;;;7370264;19;20045;-78
2023/01/02 00:28:19;;;;;;;18.52;3.85;;;16.60;90.00;;;;;;7366272;19;20018;-78
2023/01/02 00:31:20;;;;;;;9.57;3.38;;;16.60;90.00;;;;;;7362771;19;20022;-78
2023/01/02 00:33:59;;;;;;;12.68;2.95;;;16.50;90.00;;;;;;7363248;19;20010;-78
2023/01/02 00:36:45;;;;;;;15.32;2.92;;;16.40;90.10;;;;;;7368294;19;20010;-78
2023/01/02 00:39:32;;;;;;;6.40;2.80;;;16.50;90.20;;;;;;7369186;19;20053;-78
2023/01/02 00:42:28;;;;;;;13.73;3.40;;;16.50;90.30;;;;;;7369827;19;20010;-78
2023/01/02 00:45:09;;;;;;;8.70;3.58;;;16.40;90.50;;;;;;7367951;19;20084;-78
2023/01/02 00:47:55;;;;;;;14.27;3.97;;;16.50;90.60;;;;;;7368519;19;20040;-78
2023/01/02 00:50:34;;;;;;;13.75;4.22;;;16.30;91.00;;;;;;7361526;19;20098;-78
2023/01/02 00:53:24;;;;;;;12.23;3.60;;;16.40;90.90;;;;;;7364557;19;20049;-78
2023/01/02 00:56:06;;;;;;;19.38;4.25;;;16.30;91.00;;;;;;7362440;19;20042;-78
2023/01/02 01:01:34;;;;;;;;;;;16.50;90.90;;;;;;7364324;19;20010;-79
2023/01/02 01:04:35;;;;;;;13.95;3.47;;;16.60;90.80;;;;;;7367381;19;20299;-78
2023/01/02 01:07:15;;;;;;;9.88;3.40;;;16.50;90.70;;;;;;7362136;19;20022;-78
2023/01/02 01:10:00;;;;;;;21.00;3.60;;;16.50;90.80;;;;;;7365290;19;21012;-78
2023/01/02 01:12:48;;;;;;;13.45;3.78;;;16.40;91.00;;;;;;7363518;19;20010;-78
2023/01/02 01:15:30;;;;;;;13.57;3.65;;;16.40;90.90;;;;;;7360951;19;20022;-79
2023/01/02 01:18:19;;;;;;;11.85;3.47;;;16.40;91.00;;;;;;7375845;19;20050;-79
2023/01/02 01:21:20;;;;;;;15.60;3.75;;;16.40;91.10;;;;;;7373085;19;20010;-78
2023/01/02 01:24:07;;;;;;;11.85;3.40;;;16.30;91.40;;;;;;7373485;19;20010;-79
2023/01/02 01:26:51;;;;;;;11.77;3.53;;;16.30;91.40;;;;;;7375426;19;20030;-79
2023/01/02 01:29:32;;;;;;;15.57;3.38;;;16.40;91.30;;;;;;7352367;19;20047;-79
2023/01/02 01:32:18;;;;;;;9.52;3.20;;;16.40;91.20;;;;;;7369639;19;20078;-79
2023/01/02 01:35:03;;;;;;;13.52;3.17;;;16.20;91.90;;;;;;7374681;19;20018;-79
2023/01/02 01:37:57;;;;;;;16.30;3.20;;;16.30;91.50;;;;;;7396476;19;20010;-78
2023/01/02 01:40:48;;;;;;;10.73;3.10;;;16.40;91.50;;;;;;7375892;19;20010;-78
2023/01/02 01:43:57;;;;;;;15.43;2.90;;;16.40;91.40;;;;;;7375673;19;20031;-79
2023/01/02 01:46:40;;;;;;;9.70;3.00;;;16.40;91.50;;;;;;7372782;19;20376;-79
2023/01/02 01:49:18;;;;;;;9.90;2.75;;;16.30;91.40;;;;;;7369148;19;20093;-78
2023/01/02 01:52:03;;;;;;;12.68;3.20;;;16.30;91.50;;;;;;7364543;19;20010;-77
2023/01/02 01:54:51;;;;;;;19.00;3.17;;;16.20;91.60;;;;;;7369401;19;20010;-78
2023/01/02 01:57:32;;;;;;;19.45;3.03;;;16.20;91.70;;;;;;7369476;19;20010;-78
2023/01/02 02:00:08;;;;;;;8.02;2.47;;;16.20;91.80;;;;;;7368661;19;20015;-78
2023/01/02 02:02:45;;;;;;;10.88;2.58;;;16.30;91.90;;;;;;7370123;19;20027;-78
2023/01/02 02:05:24;;;;;;;13.23;2.78;;;16.30;91.70;;;;;;7364305;19;20015;-78
2023/01/02 02:11:09;;;;;;;12.10;2.28;;;16.30;91.70;;;;;;7362311;19;20018;-78
2023/01/02 02:13:48;;;;;;;11.02;2.72;;;16.20;91.80;;;;;;7389743;19;20039;-78
2023/01/02 02:16:37;;;;;;;9.60;2.47;;;16.30;91.70;;;;;;7369477;19;20014;-78
2023/01/02 02:19:38;;;;;;;8.70;2.45;;;16.30;91.80;;;;;;7368132;19;20474;-78
2023/01/02 02:22:44;;;;;;;17.65;3.33;;;16.40;92.20;;;;;;7355771;19;20503;-78
2023/01/02 02:25:37;;;;;;;12.90;3.40;;;16.30;91.90;;;;;;7372468;19;20039;-79
2023/01/02 02:28:55;;;;;;;9.52;3.03;;;16.30;91.90;;;;;;7371826;19;20054;-77
2023/01/02 02:31:56;;;;;;;14.77;3.25;;;16.30;91.90;;;;;;7371905;19;20042;-78
2023/01/02 02:35:06;;;;;;;12.88;2.88;;;16.30;92.00;;;;;;7379242;19;20037;-77
2023/01/02 02:37:58;;;;;;;12.43;2.70;;;16.30;92.00;;;;;;7390377;19;20059;-79
2023/01/02 02:40:47;;;;;;;13.48;2.90;;;16.20;92.20;;;;;;7377820;19;20030;-77
2023/01/02 02:43:49;;;;;;;10.30;2.72;;;16.20;92.30;;;;;;7375043;19;20032;-77
2023/01/02 02:46:38;;;;;;;17.85;3.10;;;16.20;92.40;;;;;;7371936;19;20324;-77
2023/01/02 02:49:28;;;;;;;7.85;2.20;;;16.30;92.40;;;;;;7363142;19;20058;-78
2023/01/02 02:52:11;;;;;;;8.57;2.40;;;16.20;92.40;;;;;;7366303;19;20026;-78
2023/01/02 02:54:53;;;;;;;17.60;2.75;;;16.20;92.50;;;;;;7368107;19;20456;-78
2023/01/02 02:57:31;;;;;;;13.18;2.92;;;16.20;92.60;;;;;;7363070;19;20607;-78
2023/01/02 03:00:14;;;;;;;8.10;2.13;;;16.20;92.60;;;;;;7364788;19;20081;-78
2023/01/02 03:02:59;;;;;;;10.88;2.25;;;16.20;92.60;;;;;;7368559;19;20015;-78
2023/01/02 03:05:45;;;;;;;4.32;1.50;;;16.20;92.60;;;;;;7363228;19;20025;-78
2023/01/02 03:08:37;;;;;;;6.15;1.80;;;16.10;92.50;;;;;;7362953;19;20465;-78
2023/01/02 03:11:18;;;;;;;8.18;1.67;;;16.00;92.60;;;;;;7371117;19;20011;-78
2023/01/02 03:14:06;;;;;;;9.20;1.23;;;15.90;92.70;;;;;;7365603;19;20018;-78
2023/01/02 03:16:48;;;;;;;4.90;1.75;;;15.80;92.70;;;;;;7392674;19;20018;-76
2023/01/02 03:19:50;;;;;;;11.38;1.17;;;15.80;92.70;;;;;;7372790;19;20010;-77
2023/01/02 03:22:46;;;;;;;2.03;0.80;;;15.70;92.60;;;;;;7371339;19;20023;-79
2023/01/02 03:25:38;;;;;;;1.75;0.68;;;15.70;92.70;;;;;;7372432;19;20099;-77
2023/01/02 03:28:25;;;;;;;3.63;0.80;;;15.50;92.70;;;;;;7373252;19;20010;-76
2023/01/02 03:31:31;;;;;;;2.00;0.80;;;15.60;92.50;;;;;;7368259;19;20038;-78
2023/01/02 03:44:47;;;;;;;2.90;0.45;;;15.70;92.40;;;;;;7386439;19;20018;-78
2023/01/02 03:47:50;;;;;;;4.30;0.60;;;15.70;92.10;;;;;;7164506;19;2004574;-77
2023/01/02 03:51:09;;;;;;;3.42;0.60;;;15.60;92.20;;;;;;7351482;19;20463;-77
2023/01/02 03:54:04;;;;;;;1.70;0.75;;;15.70;92.30;;;;;;7365809;19;20046;-78
2023/01/02 03:56:54;;;;;;;0.95;0.50;;;15.60;92.20;;;;;;7366679;19;20014;-77
2023/01/02 03:59:53;;;;;;;2.90;0.38;;;15.70;92.40;;;;;;7360615;19;20014;-77
2023/01/02 04:02:51;;;;;;;2.80;0.90;;;15.80;92.30;;;;;;7365090;19;20582;-77
2023/01/02 04:05:32;;;;;;;0.82;0.68;;;15.80;92.20;;;;;;7360970;19;20332;-79
2023/01/02 04:08:26;;;;;;;4.63;0.90;;;15.80;92.30;;;;;;7367299;19;20014;-77
2023/01/02 04:11:05;;;;;;;2.17;0.68;;;15.70;92.30;;;;;;7351968;19;20013;-78
2023/01/02 04:13:45;;;;;;;1.70;0.63;;;15.70;92.20;;;;;;7388569;19;20025;-77
2023/01/02 04:16:24;;;;;;;1.00;0.65;;;15.70;92.30;;;;;;7368024;19;20014;-78
2023/01/02 04:19:20;;;;;;;11.35;1.02;;;15.60;92.30;;;;;;7365953;19;20015;-77
2023/01/02 04:22:13;;;;;;;1.13;0.60;;;15.60;92.30;;;;;;7356757;19;20089;-78
2023/01/02 04:25:12;;;;;;;3.13;0.95;;;15.60;92.40;;;;;;7366945;19;20006;-79
2023/01/02 04:28:06;;;;;;;4.57;0.88;;;15.60;92.70;;;;;;7359760;19;20044;-77
2023/01/02 04:31:05;;;;;;;1.38;0.70;;;15.70;92.60;;;;;;7347993;19;20022;-79
2023/01/02 04:33:56;;;;;;;3.15;0.60;;;15.70;92.40;;;;;;7341804;19;20094;-77
2023/01/02 04:36:49;;;;;;;2.00;0.80;;;15.70;92.50;;;;;;7368178;19;20469;-77
2023/01/02 04:39:46;;;;;;;3.15;0.70;;;15.70;92.50;;;;;;7366519;19;20007;-77
2023/01/02 04:42:38;;;;;;;1.67;0.65;;;15.70;92.50;;;;;;7355274;19;20011;-77
2023/01/02 04:45:35;;;;;;;2.65;0.90;;;15.70;92.40;;;;;;7362168;19;20435;-77
2023/01/02 04:48:24;;;;;;;2.35;0.80;;;15.70;92.50;;;;;;7359172;19;20014;-78
2023/01/02 04:51:11;;;;;;;1.60;0.57;;;15.70;92.50;;;;;;7363928;19;20380;-77
2023/01/02 04:53:59;;;;;;;9.05;1.02;;;15.60;92.50;;;;;;7361799;19;20017;-77
2023/01/02 04:56:39;;;;;;;2.90;0.75;;;15.60;92.50;;;;;;7356446;19;20033;-78
2023/01/02 04:59:35;;;;;;;3.28;0.60;;;15.60;92.50;;;;;;7364628;19;20097;-77
2023/01/02 05:02:21;;;;;;;1.17;0.60;;;15.50;92.40;;;;;;7361998;19;20022;-78
2023/01/02 05:05:23;;;;;;;5.43;0.70;;;15.60;92.50;;;;;;7347842;19;20020;-78
2023/01/02 05:08:12;;;;;;;0.40;0.38;;;15.60;92.70;;;;;;7353445;19;20022;-78
2023/01/02 05:14:04;;;;;;;1.90;0.50;;;15.70;92.80;;;;;;7265054;19;2004573;-78
2023/01/02 05:26:40;;;;;;;0.73;0.30;;;15.70;92.40;;;;;;7362973;19;20029;-78
2023/01/02 05:29:15;;;;;;;1.02;0.47;;;15.60;92.10;;;;;;7362328;19;20010;-78
2023/01/02 05:35:17;;;;;;;1.23;0.30;;;15.50;92.20;;;;;;7262901;19;2004483;-78
2023/01/02 05:38:18;;;;;;;3.42;0.50;;;15.40;92.00;;;;;;7365628;19;20022;-78
2023/01/02 05:41:17;;;;;;;1.73;0.50;;;15.40;92.30;;;;;;7380534;19;20018;-78
2023/01/02 05:44:02;;;;;;;1.15;0.30;;;15.40;92.20;;;;;;7263585;19;2004478;-78
2023/01/02 05:46:54;;;;;;;3.40;0.63;;;15.40;92.40;;;;;;7384258;19;20011;-78
2023/01/02 05:52:46;;;;;;;1.42;0.40;;;15.40;92.40;;;;;;7364932;19;20015;-78
2023/01/02 05:55:28;;;;;;;3.45;0.73;;;15.50;92.50;;;;;;7363596;19;20045;-78
2023/01/02 05:58:15;;;;;;;2.75;1.10;;;15.40;92.10;;;;;;7358837;19;20010;-78
2023/01/02 06:00:54;;;;;;;1.63;0.50;;;15.50;92.20;;;;;;7361219;19;20015;-79
2023/01/02 06:03:55;;;;;;;2.35;0.68;;;15.50;92.30;;;;;;7357431;19;20029;-78
2023/01/02 06:07:02;;;;;;;0.30;0.30;;;15.50;92.20;;;;;;7367799;19;20025;-77
2023/01/02 06:09:48;;;;;;;4.50;0.60;;;15.40;92.10;;;;;;7370143;19;20388;-79
2023/01/02 06:12:46;;;;;;;0.60;0.50;;;15.40;92.20;;;;;;7347785;19;20129;-77
2023/01/02 06:15:43;;;;;;;6.32;1.00;;;15.40;92.30;;;;;;7353048;19;20018;-77
2023/01/02 06:18:21;;;;;;;2.42;0.70;;;15.50;92.30;;;;;;7325065;19;20006;-78
2023/01/02 06:21:16;;;;;;;1.33;0.90;;;15.50;92.20;;;;;;7362600;19;20082;-78
2023/01/02 06:26:57;;;;;;;1.40;0.63;;;15.50;91.80;;;;;;7372325;19;20423;-78
2023/01/02 06:29:45;;;;;;;3.70;0.50;;;15.40;91.80;;;;;;7351071;19;20018;-78
2023/01/02 06:32:25;;;;;;;2.45;0.55;;;15.30;92.00;;;;;;7366696;19;20588;-77
2023/01/02 06:35:05;;;;;;;0.85;0.38;;;15.30;92.00;;;;;;7369094;19;20422;-77
2023/01/02 06:37:55;;;;;;;1.67;0.68;;;15.40;92.00;;;;;;7393093;19;20026;-78
2023/01/02 06:40:38;;;;;;;2.70;0.55;;;15.40;92.00;;;;;;7371860;19;20413;-78
2023/01/02 06:43:24;;;;;;;3.17;0.60;;;15.40;92.20;;;;;;7357198;19;20019;-79
2023/01/02 06:46:20;;;;;;;3.75;0.82;;;15.40;92.10;;;;;;7318525;19;20046;-77
2023/01/02 06:49:23;;;;;;;1.63;0.50;;;15.40;92.10;;;;;;7394317;19;20099;-78
2023/01/02 06:52:08;;;;;;;1.05;0.70;;;15.40;92.10;;;;;;7369182;19;20014;-77
2023/01/02 06:54:57;;;;;;;2.28;1.08;;;15.30;92.00;;;;;;7354122;19;20018;-78
2023/01/02 07:00:54;;;;;;;0.60;0.47;;;15.30;92.20;;;;;;7364405;19;20038;-77
2023/01/02 07:03:52;;;;;;;3.28;0.82;;;15.40;92.20;;;;;;7368680;19;20018;-77
2023/01/02 07:06:33;;;;;;;1.70;0.63;;;15.40;92.20;;;;;;7357755;19;20029;-77
2023/01/02 07:09:12;;;;;;;1.60;0.70;;;15.40;92.20;;;;;;7368581;19;20447;-77
2023/01/02 07:11:52;;;;;;;1.05;0.60;;;15.40;92.10;;;;;;7366890;19;20035;-77
2023/01/02 07:14:31;;;;;;;0.93;0.50;;;15.50;92.20;;;;;;7365125;19;20467;-77
2023/01/02 07:17:14;;;;;;;0.95;0.68;;;15.40;92.10;;;;;;7364616;19;20451;-77
2023/01/02 07:19:57;;;;;;;1.27;0.60;;;15.50;92.50;;;;;;7387107;19;20011;-78
2023/01/02 07:22:52;;;;;;;2.38;0.70;;;15.50;91.70;;;;;;7369105;19;20335;-77
2023/01/02 07:25:39;;;;;;;1.10;0.57;;;15.40;91.50;;;;;;7367963;19;20025;-77
2023/01/02 07:28:20;;;;;;;1.23;0.38;;;15.40;91.70;;;;;;7364461;19;20017;-76
2023/01/02 07:31:07;;;;;;;5.60;0.60;;;15.40;91.70;;;;;;7368902;19;20019;-77
2023/01/02 07:33:50;;;;;;;4.53;0.57;;;15.40;91.70;;;;;;7366119;19;20370;-78
2023/01/02 07:36:31;;;;;;;1.65;0.70;;;15.40;91.50;;;;;;7365928;19;20074;-77
2023/01/02 07:39:13;;;;;;;2.28;0.60;;;15.20;91.30;;;;;;7361215;19;20086;-78
2023/01/02 07:41:48;;;;;;;0.40;0.40;;;15.20;91.50;;;;;;7364396;19;20025;-77
2023/01/02 07:44:35;;;;;;;1.92;0.55;;;15.10;91.70;;;;;;7361416;19;20011;-77
2023/01/02 07:47:45;;;;;;;3.30;0.65;;;15.20;91.80;;;;;;7356049;19;20035;-77
2023/01/02 07:53:50;;;;;;;1.05;0.45;;;15.20;91.50;;;;;;7367086;19;20138;-77
2023/01/02 07:56:37;;;;;;;0.88;0.40;;;15.20;91.40;;;;;;7368344;19;20014;-77
2023/01/02 07:59:26;;;;;;;0.43;0.30;;;15.20;91.30;;;;;;7368567;19;20426;-77
2023/01/02 08:02:23;;;;;;;1.50;0.60;;;15.20;91.40;;;;;;7368899;19;20015;-77
2023/01/02 08:05:08;;;;;;;3.97;0.60;;;15.20;91.50;;;;;;7368534;19;20014;-78
2023/01/02 08:08:03;;;;;;;0.45;0.45;;;15.20;91.20;;;;;;7389216;19;20006;-78
2023/01/02 08:13:41;;;;;;;0.95;0.40;;;15.30;91.30;;;;;;7331443;19;20010;-78
2023/01/02 08:16:26;;;;;;;1.05;0.60;;;15.30;91.20;;;;;;7328194;19;20041;-78
2023/01/02 08:19:07;;;;;;;0.63;0.63;;;15.30;91.10;;;;;;7361092;19;20528;-78
2023/01/02 08:22:05;;;;;;;0.60;0.50;;;15.30;91.10;;;;;;7367737;19;20015;-79
2023/01/02 08:25:14;;;;;;;3.90;0.70;;;15.20;91.00;;;;;;7367174;19;20011;-79
2023/01/02 08:28:13;;;;;;;1.55;0.73;;;15.20;91.00;;;;;;7365521;19;20342;-79
2023/01/02 08:40:55;;;;;;;4.67;0.80;;;15.20;90.60;;;;;;7369312;19;20011;-78
2023/01/02 08:43:51;;;;;;;1.00;0.60;;;15.10;90.70;;;;;;7388862;19;20014;-78
2023/01/02 08:46:37;;;;;;;2.25;0.70;;;15.10;90.60;;;;;;7367526;19;20015;-79
2023/01/02 08:49:18;;;;;;;2.72;0.70;;;15.00;90.70;;;;;;7366150;19;20173;-79
2023/01/02 08:52:23;;;;;;;2.05;0.70;;;15.10;90.80;;;;;;7366709;19;20017;-79
2023/01/02 08:58:19;;;;;;;0.80;0.50;;;15.20;90.90;;;;;;7367587;19;20044;-80
2023/01/02 09:01:02;;;;;;;1.25;0.50;;;15.10;90.80;;;;;;7361235;19;20035;-78
2023/01/02 09:03:47;;;;;;;2.03;0.55;;;15.10;90.60;;;;;;7358129;19;20015;-79
2023/01/02 09:06:28;;;;;;;1.77;0.45;;;15.10;90.50;;;;;;7368791;19;20113;-80
2023/01/02 09:09:02;;;;;;;0.50;0.40;;;15.10;90.60;;;;;;7368195;19;20022;-80
2023/01/02 09:11:42;;;;;;;2.53;0.50;;;14.90;90.50;;;;;;7366115;19;20438;-78
2023/01/02 09:24:25;;;;;;;3.40;0.80;;;14.80;91.30;;;;;;7364785;19;20021;-81
2023/01/02 09:27:06;;;;;;;4.13;0.80;;;14.80;91.30;;;;;;7303484;19;20018;-79
2023/01/02 09:29:43;;;;;;;1.75;0.65;;;14.80;91.20;;;;;;7384851;19;20577;-80
2023/01/02 09:32:49;;;;;;;1.48;0.40;;;14.70;91.30;;;;;;7360680;19;20126;-80
2023/01/02 09:38:43;;;;;;;3.20;0.75;;;14.80;91.30;;;;;;7360724;19;20014;-81
2023/01/02 09:41:35;;;;;;;1.90;1.00;;;14.70;91.50;;;;;;7367611;19;20469;-80
2023/01/02 09:44:27;;;;;;;2.47;0.68;;;14.90;91.90;;;;;;7354220;19;20032;-80
2023/01/02 09:47:04;;;;;;;;;;;15.00;91.40;;;;;;7368970;19;20043;-79
2023/01/02 09:56:38;;;;;;;2.33;1.50;;;14.90;91.20;;;;;;7365253;19;20021;-80
2023/01/02 10:03:10;;;;;;;1.85;1.13;;;14.90;91.20;;;;;;7337046;19;20022;-81
2023/01/02 10:05:58;;;;;;;;;;;14.90;91.40;;;;;;7389868;19;20018;-80
2023/01/02 10:08:54;;;;;;;1.92;1.13;;;15.00;91.40;;;;;;7387471;19;20030;-80
2023/01/02 10:11:56;;;;;;;1.98;1.05;;;14.90;91.30;;;;;;7376192;19;20072;-79
2023/01/02 10:14:30;;;;;;;;;;;14.90;91.40;;;;;;7373703;19;20010;-78
2023/01/02 10:17:05;;;;;;;1.40;0.95;;;15.00;91.50;;;;;;7371073;19;19919;-78
2023/01/02 10:19:56;;;;;;;0.70;0.70;;;15.00;91.40;;;;;;7395919;19;20426;-77
2023/01/02 10:22:45;;;;;;;10.32;1.52;;;14.80;91.30;;;;;;7372768;19;20082;-78
2023/01/02 10:25:24;;;;;;;2.95;1.30;;;14.90;91.60;;;;;;7373380;19;20010;-78
2023/01/02 10:28:02;;;;;;;3.45;1.00;;;15.00;91.60;;;;;;7367542;19;20493;-77
2023/01/02 10:34:13;;;;;;;1.45;1.00;;;15.00;91.50;;;;;;7372645;19;20465;-78
2023/01/02 10:36:55;;;;;;;2.40;1.20;;;15.10;91.30;;;;;;7374123;19;20034;-78
2023/01/02 10:39:37;;;;;;;1.77;1.00;;;15.10;91.20;;;;;;7371568;19;20014;-77
2023/01/02 10:42:19;;;;;;;4.72;1.40;;;15.00;91.00;;;;;;7367264;19;20006;-76
2023/01/02 10:45:03;;;;;;;6.10;2.22;;;14.90;91.30;;;;;;7369963;19;20018;-77
2023/01/02 10:47:43;;;;;;;4.75;1.30;;;15.00;91.40;;;;;;7369199;19;20052;-77
2023/01/02 10:50:28;;;;;;;2.90;1.13;;;14.90;91.30;;;;;;7365091;19;20026;-77
2023/01/02 10:53:13;;;;;;;5.00;1.55;;;15.00;91.30;;;;;;7369548;19;20015;-77
2023/01/02 10:55:45;;;;;;;1.33;1.10;;;15.00;91.40;;;;;;7393606;19;20040;-77
2023/01/02 10:58:22;;;;;;;2.38;1.20;;;15.10;91.30;;;;;;7374364;19;20018;-77
2023/01/02 11:01:08;;;;;;;4.15;1.23;;;15.20;91.40;;;;;;7371463;19;20014;-77
2023/01/02 11:03:39;;;;;;;4.00;1.20;;;15.10;91.20;;;;;;7369191;19;20093;-77
2023/01/02 11:06:23;;;;;;;4.57;1.42;;;15.20;91.20;;;;;;7372153;19;20025;-77
2023/01/02 11:09:00;;;;;;;3.92;1.30;;;15.20;91.40;;;;;;7369300;19;20549;-77
2023/01/02 11:11:33;;;;;;;2.00;1.40;;;15.30;91.00;;;;;;7368619;19;20019;-77
2023/01/02 11:14:11;;;;;;;1.88;1.10;;;15.00;91.00;;;;;;7370769;19;20715;-78
2023/01/02 11:16:46;;;;;;;30.08;2.53;;;15.10;91.20;;;;;;7393131;19;20400;-78
2023/01/02 11:19:25;;;;;;;1.45;1.10;;;15.00;91.00;;;;;;7370161;19;20010;-77
2023/01/02 11:21:58;;;;;;;1.60;1.08;;;15.10;91.20;;;;;;7370929;19;20007;-77
2023/01/02 11:24:31;;;;;;;3.90;1.20;;;15.20;91.20;;;;;;7369830;19;20023;-77
2023/01/02 11:27:07;;;;;;;2.72;1.20;;;15.20;91.20;;;;;;7368519;19;20065;-77
2023/01/02 11:29:41;;;;;;;2.70;1.02;;;15.30;91.20;;;;;;7366931;19;20028;-78
2023/01/02 11:32:30;;;;;;;2.97;0.77;;;15.40;90.80;;;;;;7370782;19;20020;-77
2023/01/02 11:35:05;;;;;;;1.88;0.90;;;15.30;90.60;;;;;;7369425;19;20018;-76
2023/01/02 11:37:39;;;;;;;1.83;0.90;;;15.40;90.60;;;;;;7387883;19;20014;-77
2023/01/02 11:40:45;;;;;;;1.73;0.90;;;15.50;90.40;;;;;;7370798;19;20022;-77
2023/01/02 11:46:09;;;;;;;4.10;0.90;;;15.60;90.40;;;;;;7357047;19;20042;-78
2023/01/02 11:55:36;;;;;;;1.35;0.90;;;15.40;90.00;;;;;;7369709;19;20046;-78
2023/01/02 15:34:31;;;;;;;3.50;1.13;;;15.70;75.10;;;;;;7426151;19;19982;-83
2023/01/02 15:37:05;;;;;;;4.40;1.05;;;15.70;75.30;;;;;;7401292;19;20231;-82
2023/01/02 15:39:37;;;;;;;5.15;1.35;;;15.70;75.70;;;;;;7398072;19;20076;-83
2023/01/02 16:13:03;;;;;;;6.03;0.95;;;15.20;77.20;;;;;;7284844;19;20023;-77
2023/01/02 16:15:36;;;;;;;6.72;0.82;;;15.10;77.70;;;;;;7370346;19;20101;-77
2023/01/02 16:18:05;;;;;;;4.55;1.15;;;15.10;77.60;;;;;;7392633;19;20014;-77
2023/01/02 16:20:34;;;;;;;4.53;1.50;;;15.10;78.30;;;;;;7358984;19;20102;-77
2023/01/02 16:23:06;;;;;;;10.00;1.90;;;15.00;78.30;;;;;;7368690;19;20017;-78
2023/01/02 16:25:35;;;;;;;;;;;15.00;78.90;;;;;;7392078;19;20019;-76
2023/01/02 16:28:08;;;;;;;6.90;1.98;;;15.00;79.60;;;;;;7367867;19;19918;-77
2023/01/02 16:30:42;;;;;;;10.93;1.90;;;14.80;79.70;;;;;;7368418;19;20533;-77
2023/01/02 16:33:25;;;;;;;9.57;2.25;;;14.80;80.60;;;;;;7368558;19;20010;-79
2023/01/02 16:35:57;;;;;;;14.02;5.15;;;14.70;80.60;;;;;;7371028;19;20043;-80
2023/01/02 16:38:27;;;;;;;10.48;2.60;;;14.60;80.90;;;;;;7369563;19;20014;-79
2023/01/02 16:41:01;;;;;;;14.95;5.05;;;14.60;81.30;;;;;;7383053;19;20074;-78
2023/01/02 16:43:34;;;;;;;7.20;1.67;;;14.50;81.50;;;;;;7387400;19;20117;-79
2023/01/02 16:46:03;;;;;;;9.88;2.33;;;14.40;81.30;;;;;;7369952;19;20035;-77
2023/01/02 16:48:32;;;;;;;7.10;1.88;;;14.30;81.50;;;;;;7368872;19;20329;-78
2023/01/02 16:51:01;;;;;;;14.48;2.90;;;14.20;81.90;;;;;;7367116;19;20015;-79
2023/01/02 16:53:32;;;;;;;15.18;2.78;;;14.10;82.00;;;;;;7353565;19;20014;-78
2023/01/02 16:56:01;;;;;;;7.57;2.55;;;14.10;82.40;;;;;;7362675;19;20498;-78
2023/01/02 16:58:33;;;;;;;8.13;2.22;;;14.10;82.50;;;;;;7390869;19;20014;-77
2023/01/02 17:01:01;;;;;;;;;;;14.00;82.70;;;;;;7366639;19;20010;-78
2023/01/02 17:03:30;;;;;;;16.20;2.78;;;14.00;82.70;;;;;;7363875;19;20484;-78
2023/01/02 17:06:01;;;;;;;11.30;3.85;;;13.90;82.90;;;;;;7364449;19;20054;-78
2023/01/02 17:08:30;;;;;;;;;;;13.90;83.10;;;;;;7365683;19;20025;-78
2023/01/02 17:10:59;;;;;;;11.38;4.38;;;13.90;83.10;;;;;;7367119;19;19939;-77
2023/01/02 17:13:28;;;;;;;15.30;6.03;;;13.90;82.90;;;;;;7384766;19;20022;-79
2023/01/02 17:16:00;;;;;;;5.75;2.28;;;13.90;82.70;;;;;;7365410;19;20018;-78
2023/01/02 17:18:28;;;;;;;7.20;2.35;;;13.80;83.00;;;;;;7368614;19;20073;-78
2023/01/02 17:20:57;;;;;;;11.88;2.28;;;13.80;83.30;;;;;;7369801;19;20074;-77
2023/01/02 17:23:26;;;;;;;6.45;2.45;;;13.80;83.00;;;;;;7367043;19;20018;-78
2023/01/02 17:25:55;;;;;;;10.70;2.90;;;13.80;83.30;;;;;;7390499;19;20031;-78
2023/01/02 17:28:23;;;;;;;9.25;2.92;;;13.70;83.30;;;;;;7370088;19;20403;-78
2023/01/02 17:30:52;;;;;;;18.67;4.50;;;13.70;83.30;;;;;;7366194;19;20015;-78
2023/01/02 17:33:24;;;;;;;45.97;16.98;;;13.70;83.20;;;;;;7367849;19;20021;-78
2023/01/02 17:35:53;;;;;;;61.83;25.30;;;13.80;83.30;;;;;;7365470;19;20018;-78
2023/01/02 17:38:22;;;;;;;52.72;20.90;;;13.70;83.20;;;;;;7367468;19;20085;-78
2023/01/02 17:40:51;;;;;;;16.50;7.50;;;13.70;83.20;;;;;;7387747;19;20028;-78
2023/01/02 17:43:19;;;;;;;12.02;4.97;;;13.70;83.30;;;;;;7364270;19;20065;-78
2023/01/02 17:45:48;;;;;;;9.43;3.53;;;13.70;83.20;;;;;;7362744;19;20442;-77
2023/01/02 17:48:17;;;;;;;6.70;3.20;;;13.60;83.30;;;;;;7367015;19;20090;-77
2023/01/02 17:50:52;;;;;;;13.80;4.68;;;13.60;83.50;;;;;;7366325;19;20022;-77
2023/01/02 17:53:21;;;;;;;11.68;4.20;;;13.60;84.10;;;;;;7370220;19;20125;-77
2023/01/02 17:55:53;;;;;;;12.02;4.18;;;13.60;83.20;;;;;;7394560;19;20702;-77
2023/01/02 17:58:21;;;;;;;9.25;3.13;;;13.50;83.20;;;;;;7365661;19;20014;-77
2023/01/02 18:00:53;;;;;;;7.32;2.95;;;13.50;83.30;;;;;;7366272;19;20094;-77
2023/01/02 18:03:22;;;;;;;14.70;3.65;;;13.50;83.50;;;;;;7365722;19;20482;-79
2023/01/02 18:05:57;;;;;;;7.45;3.00;;;13.50;83.50;;;;;;7364831;19;20091;-78
2023/01/02 18:08:26;;;;;;;15.70;3.30;;;13.40;83.20;;;;;;7367037;19;20030;-77
2023/01/02 18:10:55;;;;;;;9.95;4.18;;;13.40;83.20;;;;;;7389313;19;20077;-78
2023/01/02 18:13:24;;;;;;;10.15;3.55;;;13.40;83.00;;;;;;7364931;19;20376;-78
2023/01/02 18:15:52;;;;;;;6.45;3.35;;;13.30;82.80;;;;;;7363914;19;20061;-77
2023/01/02 18:18:22;;;;;;;12.32;3.72;;;13.30;83.20;;;;;;7364171;19;20029;-77
2023/01/02 18:20:58;;;;;;;7.70;2.92;;;13.20;83.20;;;;;;7364795;19;20018;-77
2023/01/02 18:23:27;;;;;;;9.73;3.17;;;13.20;83.00;;;;;;7365759;19;20508;-78
2023/01/02 18:25:56;;;;;;;6.90;2.58;;;13.10;83.10;;;;;;7378526;19;20018;-78
2023/01/02 18:28:26;;;;;;;8.50;3.50;;;13.10;83.30;;;;;;7386208;19;20035;-78
2023/01/02 18:30:59;;;;;;;7.03;3.03;;;13.10;83.40;;;;;;7364132;19;20031;-77
2023/01/02 18:33:30;;;;;;;8.32;3.22;;;13.10;83.50;;;;;;7365771;19;20014;-78
2023/01/02 18:36:08;;;;;;;6.05;2.92;;;13.00;83.50;;;;;;7369094;19;20018;-78
2023/01/02 18:38:40;;;;;;;8.02;3.47;;;13.10;83.60;;;;;;7365890;19;20022;-78
2023/01/02 18:41:17;;;;;;;9.38;3.42;;;13.10;83.10;;;;;;7362868;19;20019;-78
2023/01/02 18:43:48;;;;;;;14.05;3.97;;;13.10;83.40;;;;;;7387877;19;20074;-79
2023/01/02 18:46:19;;;;;;;6.60;3.63;;;13.10;83.30;;;;;;7368015;19;20018;-78
2023/01/02 18:48:48;;;;;;;12.60;3.65;;;13.10;83.10;;;;;;7368542;19;20010;-79
2023/01/02 18:51:23;;;;;;;12.50;5.70;;;13.10;82.70;;;;;;7332985;19;20027;-79
2023/01/02 18:53:53;;;;;;;13.20;5.88;;;13.00;82.80;;;;;;7366836;19;20028;-79
2023/01/02 18:56:25;;;;;;;14.43;6.30;;;13.00;83.00;;;;;;7365478;19;20022;-78
2023/01/02 18:59:03;;;;;;;20.65;7.40;;;13.00;83.00;;;;;;7387298;19;20011;-79
2023/01/02 19:01:35;;;;;;;15.55;6.60;;;13.00;83.00;;;;;;7362152;19;20017;-80
2023/01/02 19:04:18;;;;;;;9.93;5.22;;;13.00;82.90;;;;;;7363738;19;20019;-80
2023/01/02 19:06:52;;;;;;;17.05;6.28;;;12.90;82.90;;;;;;7364308;19;20019;-78
2023/01/02 19:09:24;;;;;;;13.73;3.40;;;12.90;83.50;;;;;;7362386;19;20011;-77
2023/01/02 19:14:42;;;;;;;12.40;3.70;;;12.80;82.90;;;;;;7363809;19;20091;-78
2023/01/02 19:17:20;;;;;;;9.07;3.50;;;12.80;82.80;;;;;;7361832;19;20031;-79
2023/01/02 19:19:48;;;;;;;6.78;3.40;;;12.80;82.70;;;;;;7385489;19;20018;-77
2023/01/02 19:22:23;;;;;;;17.88;3.63;;;12.80;82.70;;;;;;7364933;19;20593;-78
2023/01/02 19:24:52;;;;;;;11.48;3.88;;;12.80;83.10;;;;;;7366169;19;20257;-79
2023/01/02 19:27:26;;;;;;;12.00;3.80;;;12.80;83.30;;;;;;7370732;19;20174;-77
2023/01/02 19:29:55;;;;;;;11.25;4.03;;;12.80;83.30;;;;;;7370220;19;20462;-78
2023/01/02 19:32:29;;;;;;;6.10;3.42;;;12.80;83.10;;;;;;7369657;19;20070;-79
2023/01/02 19:35:00;;;;;;;8.18;3.22;;;12.80;83.00;;;;;;7370356;19;20448;-79
2023/01/02 19:37:49;;;;;;;9.48;3.28;;;12.80;83.10;;;;;;7391644;19;20040;-78
2023/01/02 19:40:19;;;;;;;9.90;3.28;;;12.80;83.10;;;;;;7369957;19;20022;-79
2023/01/02 19:42:52;;;;;;;12.00;4.30;;;12.80;83.00;;;;;;7368049;19;20086;-78
2023/01/02 19:45:23;;;;;;;18.63;4.07;;;12.80;83.00;;;;;;7368035;19;20078;-78
2023/01/02 19:47:53;;;;;;;9.70;3.78;;;12.70;83.00;;;;;;7368407;19;20525;-78
2023/01/02 19:50:23;;;;;;;6.07;3.20;;;12.70;83.30;;;;;;7368942;19;20018;-78
2023/01/02 19:52:55;;;;;;;26.23;3.33;;;12.70;84.10;;;;;;7390969;19;20384;-78